sensor_id;sensor_type;location;lat;lon;timestamp;temperature;humidity
68480;DHT22;55469;48.934;12.050;2023-04-28T00:00:43;13.70;79.00
68480;DHT22;55469;48.934;12.050;2023-04-28T00:03:09;13.80;79.00
68480;DHT22;55469;48.934;12.050;2023-04-28T00:05:35;13.70;79.10
68480;DHT22;55469;48.934;12.050;2023-04-28T00:08:01;13.70;79.10
68480;DHT22;55469;48.934;12.050;2023-04-28T00:10:28;13.70;79.20
68480;DHT22;55469;48.934;12.050;2023-04-28T00:12:55;13.60;79.20
68480;DHT22;55469;48.934;12.050;2023-04-28T00:15:20;13.60;79.30
68480;DHT22;55469;48.934;12.050;2023-04-28T00:17:46;13.70;79.20
68480;DHT22;55469;48.934;12.050;2023-04-28T00:20:15;13.60;79.30
68480;DHT22;55469;48.934;12.050;2023-04-28T00:22:41;13.60;79.30
68480;DHT22;55469;48.934;12.050;2023-04-28T00:25:07;13.60;79.30
68480;DHT22;55469;48.934;12.050;2023-04-28T00:27:34;13.60;79.30
68480;DHT22;55469;48.934;12.050;2023-04-28T00:30:00;13.60;79.30
68480;DHT22;55469;48.934;12.050;2023-04-28T00:32:26;13.60;79.40
68480;DHT22;55469;48.934;12.050;2023-04-28T00:34:52;13.50;79.50
68480;DHT22;55469;48.934;12.050;2023-04-28T00:37:18;13.50;79.40
68480;DHT22;55469;48.934;12.050;2023-04-28T00:39:44;13.50;80.60
68480;DHT22;55469;48.934;12.050;2023-04-28T00:42:13;13.50;79.50
68480;DHT22;55469;48.934;12.050;2023-04-28T00:44:39;13.50;79.60
68480;DHT22;55469;48.934;12.050;2023-04-28T00:47:08;13.50;79.70
68480;DHT22;55469;48.934;12.050;2023-04-28T00:49:35;13.40;79.60
68480;DHT22;55469;48.934;12.050;2023-04-28T00:52:05;13.40;79.60
68480;DHT22;55469;48.934;12.050;2023-04-28T00:54:34;13.40;79.60
68480;DHT22;55469;48.934;12.050;2023-04-28T00:57:00;13.40;79.80
68480;DHT22;55469;48.934;12.050;2023-04-28T00:59:30;13.40;79.70
68480;DHT22;55469;48.934;12.050;2023-04-28T01:01:56;13.40;79.80
68480;DHT22;55469;48.934;12.050;2023-04-28T01:04:24;13.40;79.80
68480;DHT22;55469;48.934;12.050;2023-04-28T01:06:52;13.40;79.70
68480;DHT22;55469;48.934;12.050;2023-04-28T01:09:20;13.30;79.70
68480;DHT22;55469;48.934;12.050;2023-04-28T01:11:46;13.30;80.90
68480;DHT22;55469;48.934;12.050;2023-04-28T01:14:12;13.30;79.90
68480;DHT22;55469;48.934;12.050;2023-04-28T01:16:38;13.30;80.00
68480;DHT22;55469;48.934;12.050;2023-04-28T01:19:06;13.30;79.90
68480;DHT22;55469;48.934;12.050;2023-04-28T01:21:33;13.20;79.80
68480;DHT22;55469;48.934;12.050;2023-04-28T01:24:00;13.20;80.00
68480;DHT22;55469;48.934;12.050;2023-04-28T01:26:26;13.20;80.00
68480;DHT22;55469;48.934;12.050;2023-04-28T01:28:52;13.20;80.00
68480;DHT22;55469;48.934;12.050;2023-04-28T01:31:19;13.20;80.10
68480;DHT22;55469;48.934;12.050;2023-04-28T01:33:45;13.20;80.10
68480;DHT22;55469;48.934;12.050;2023-04-28T01:36:10;13.20;80.10
68480;DHT22;55469;48.934;12.050;2023-04-28T01:38:36;13.20;80.10
68480;DHT22;55469;48.934;12.050;2023-04-28T01:41:02;13.10;80.10
68480;DHT22;55469;48.934;12.050;2023-04-28T01:43:28;13.10;80.20
68480;DHT22;55469;48.934;12.050;2023-04-28T01:45:54;13.10;80.30
68480;DHT22;55469;48.934;12.050;2023-04-28T01:48:19;13.10;80.30
68480;DHT22;55469;48.934;12.050;2023-04-28T01:50:45;13.10;80.30
68480;DHT22;55469;48.934;12.050;2023-04-28T01:53:11;13.10;80.40
68480;DHT22;55469;48.934;12.050;2023-04-28T01:55:38;13.10;80.30
68480;DHT22;55469;48.934;12.050;2023-04-28T01:58:04;13.10;80.30
68480;DHT22;55469;48.934;12.050;2023-04-28T02:00:30;13.10;80.30
68480;DHT22;55469;48.934;12.050;2023-04-28T02:02:55;13.00;80.30
68480;DHT22;55469;48.934;12.050;2023-04-28T02:05:21;13.00;80.30
68480;DHT22;55469;48.934;12.050;2023-04-28T02:07:47;13.00;80.50
68480;DHT22;55469;48.934;12.050;2023-04-28T02:10:15;13.00;80.40
68480;DHT22;55469;48.934;12.050;2023-04-28T02:12:41;13.00;80.40
68480;DHT22;55469;48.934;12.050;2023-04-28T02:15:08;13.00;80.40
68480;DHT22;55469;48.934;12.050;2023-04-28T02:17:34;12.90;80.50
68480;DHT22;55469;48.934;12.050;2023-04-28T02:19:59;12.90;80.60
68480;DHT22;55469;48.934;12.050;2023-04-28T02:22:25;12.90;80.50
68480;DHT22;55469;48.934;12.050;2023-04-28T02:24:51;12.90;80.40
68480;DHT22;55469;48.934;12.050;2023-04-28T02:27:17;12.90;80.50
68480;DHT22;55469;48.934;12.050;2023-04-28T02:29:42;12.90;80.50
68480;DHT22;55469;48.934;12.050;2023-04-28T02:32:08;12.90;80.50
68480;DHT22;55469;48.934;12.050;2023-04-28T02:34:34;12.90;80.50
68480;DHT22;55469;48.934;12.050;2023-04-28T02:36:59;12.90;80.60
68480;DHT22;55469;48.934;12.050;2023-04-28T02:39:25;12.80;80.50
68480;DHT22;55469;48.934;12.050;2023-04-28T02:41:52;12.90;80.70
68480;DHT22;55469;48.934;12.050;2023-04-28T02:44:18;12.80;80.70
68480;DHT22;55469;48.934;12.050;2023-04-28T02:46:44;12.80;80.60
68480;DHT22;55469;48.934;12.050;2023-04-28T02:49:10;12.80;80.60
68480;DHT22;55469;48.934;12.050;2023-04-28T02:51:36;12.80;80.60
68480;DHT22;55469;48.934;12.050;2023-04-28T02:54:02;12.80;80.70
68480;DHT22;55469;48.934;12.050;2023-04-28T02:56:28;12.80;81.80
68480;DHT22;55469;48.934;12.050;2023-04-28T02:58:57;12.80;80.70
68480;DHT22;55469;48.934;12.050;2023-04-28T03:01:23;12.70;80.80
68480;DHT22;55469;48.934;12.050;2023-04-28T03:03:48;12.70;80.80
68480;DHT22;55469;48.934;12.050;2023-04-28T03:06:14;12.70;80.80
68480;DHT22;55469;48.934;12.050;2023-04-28T03:08:40;12.70;80.70
68480;DHT22;55469;48.934;12.050;2023-04-28T03:11:06;12.80;80.70
68480;DHT22;55469;48.934;12.050;2023-04-28T03:13:31;12.70;80.70
68480;DHT22;55469;48.934;12.050;2023-04-28T03:15:57;12.70;80.70
68480;DHT22;55469;48.934;12.050;2023-04-28T03:18:23;12.70;80.70
68480;DHT22;55469;48.934;12.050;2023-04-28T03:20:49;12.70;80.70
68480;DHT22;55469;48.934;12.050;2023-04-28T03:23:15;12.60;80.70
68480;DHT22;55469;48.934;12.050;2023-04-28T03:25:41;12.70;80.80
68480;DHT22;55469;48.934;12.050;2023-04-28T03:28:06;12.60;80.90
68480;DHT22;55469;48.934;12.050;2023-04-28T03:30:32;12.60;80.90
68480;DHT22;55469;48.934;12.050;2023-04-28T03:32:58;12.70;80.90
68480;DHT22;55469;48.934;12.050;2023-04-28T03:35:23;12.60;80.90
68480;DHT22;55469;48.934;12.050;2023-04-28T03:37:49;12.60;80.90
68480;DHT22;55469;48.934;12.050;2023-04-28T03:40:15;12.60;80.90
68480;DHT22;55469;48.934;12.050;2023-04-28T03:42:41;12.60;80.80
68480;DHT22;55469;48.934;12.050;2023-04-28T03:45:07;12.60;80.80
68480;DHT22;55469;48.934;12.050;2023-04-28T03:47:33;12.60;80.80
68480;DHT22;55469;48.934;12.050;2023-04-28T03:49:59;12.60;81.90
68480;DHT22;55469;48.934;12.050;2023-04-28T03:52:25;12.60;80.80
68480;DHT22;55469;48.934;12.050;2023-04-28T03:54:51;12.60;80.70
68480;DHT22;55469;48.934;12.050;2023-04-28T03:57:17;12.50;81.90
68480;DHT22;55469;48.934;12.050;2023-04-28T03:59:43;12.50;80.90
68480;DHT22;55469;48.934;12.050;2023-04-28T04:02:08;12.50;81.00
68480;DHT22;55469;48.934;12.050;2023-04-28T04:04:34;12.50;81.10
68480;DHT22;55469;48.934;12.050;2023-04-28T04:07:00;12.50;81.10
68480;DHT22;55469;48.934;12.050;2023-04-28T04:09:26;12.50;80.90
68480;DHT22;55469;48.934;12.050;2023-04-28T04:11:55;12.50;81.00
68480;DHT22;55469;48.934;12.050;2023-04-28T04:14:20;12.40;80.90
68480;DHT22;55469;48.934;12.050;2023-04-28T04:16:46;12.50;81.00
68480;DHT22;55469;48.934;12.050;2023-04-28T04:19:12;12.40;81.10
68480;DHT22;55469;48.934;12.050;2023-04-28T04:21:38;12.40;81.10
68480;DHT22;55469;48.934;12.050;2023-04-28T04:24:04;12.40;81.10
68480;DHT22;55469;48.934;12.050;2023-04-28T04:26:30;12.40;81.10
68480;DHT22;55469;48.934;12.050;2023-04-28T04:28:56;12.40;81.10
68480;DHT22;55469;48.934;12.050;2023-04-28T04:31:22;12.40;81.10
68480;DHT22;55469;48.934;12.050;2023-04-28T04:33:48;12.40;81.10
68480;DHT22;55469;48.934;12.050;2023-04-28T04:36:13;12.40;81.00
68480;DHT22;55469;48.934;12.050;2023-04-28T04:38:39;12.40;80.90
68480;DHT22;55469;48.934;12.050;2023-04-28T04:41:05;12.40;81.00
68480;DHT22;55469;48.934;12.050;2023-04-28T04:43:31;12.40;81.00
68480;DHT22;55469;48.934;12.050;2023-04-28T04:45:57;12.40;81.00
68480;DHT22;55469;48.934;12.050;2023-04-28T04:48:22;12.40;81.10
68480;DHT22;55469;48.934;12.050;2023-04-28T04:50:48;12.40;81.00
68480;DHT22;55469;48.934;12.050;2023-04-28T04:53:14;12.40;81.00
68480;DHT22;55469;48.934;12.050;2023-04-28T04:55:40;12.40;81.00
68480;DHT22;55469;48.934;12.050;2023-04-28T04:58:06;12.30;80.90
68480;DHT22;55469;48.934;12.050;2023-04-28T05:00:32;12.40;81.00
68480;DHT22;55469;48.934;12.050;2023-04-28T05:02:58;12.30;80.90
68480;DHT22;55469;48.934;12.050;2023-04-28T05:05:24;12.30;81.10
68480;DHT22;55469;48.934;12.050;2023-04-28T05:07:50;12.30;81.10
68480;DHT22;55469;48.934;12.050;2023-04-28T05:10:16;12.30;81.00
68480;DHT22;55469;48.934;12.050;2023-04-28T05:12:42;12.30;80.90
68480;DHT22;55469;48.934;12.050;2023-04-28T05:15:09;12.30;81.00
68480;DHT22;55469;48.934;12.050;2023-04-28T05:17:35;12.30;80.80
68480;DHT22;55469;48.934;12.050;2023-04-28T05:20:02;12.30;80.80
68480;DHT22;55469;48.934;12.050;2023-04-28T05:22:28;12.40;81.00
68480;DHT22;55469;48.934;12.050;2023-04-28T05:24:55;12.40;80.70
68480;DHT22;55469;48.934;12.050;2023-04-28T05:27:21;12.40;80.70
68480;DHT22;55469;48.934;12.050;2023-04-28T05:29:47;12.40;80.70
68480;DHT22;55469;48.934;12.050;2023-04-28T05:32:12;12.40;80.70
68480;DHT22;55469;48.934;12.050;2023-04-28T05:34:38;12.40;80.70
68480;DHT22;55469;48.934;12.050;2023-04-28T05:37:04;12.40;80.70
68480;DHT22;55469;48.934;12.050;2023-04-28T05:39:30;12.40;80.90
68480;DHT22;55469;48.934;12.050;2023-04-28T05:41:55;12.40;80.60
68480;DHT22;55469;48.934;12.050;2023-04-28T05:44:23;12.40;80.70
68480;DHT22;55469;48.934;12.050;2023-04-28T05:46:48;12.40;80.70
68480;DHT22;55469;48.934;12.050;2023-04-28T05:49:14;12.40;80.60
68480;DHT22;55469;48.934;12.050;2023-04-28T05:51:40;12.40;80.60
68480;DHT22;55469;48.934;12.050;2023-04-28T05:54:06;12.40;80.50
68480;DHT22;55469;48.934;12.050;2023-04-28T05:56:32;12.40;80.50
68480;DHT22;55469;48.934;12.050;2023-04-28T05:58:58;12.40;80.50
68480;DHT22;55469;48.934;12.050;2023-04-28T06:01:26;12.40;80.60
68480;DHT22;55469;48.934;12.050;2023-04-28T06:03:52;12.40;80.60
68480;DHT22;55469;48.934;12.050;2023-04-28T06:06:18;12.40;80.50
68480;DHT22;55469;48.934;12.050;2023-04-28T06:08:43;12.40;80.60
68480;DHT22;55469;48.934;12.050;2023-04-28T06:11:11;12.40;80.60
68480;DHT22;55469;48.934;12.050;2023-04-28T06:13:36;12.40;80.60
68480;DHT22;55469;48.934;12.050;2023-04-28T06:16:02;12.40;80.70
68480;DHT22;55469;48.934;12.050;2023-04-28T06:18:29;12.40;80.70
68480;DHT22;55469;48.934;12.050;2023-04-28T06:20:57;12.40;80.70
68480;DHT22;55469;48.934;12.050;2023-04-28T06:23:22;12.40;80.70
68480;DHT22;55469;48.934;12.050;2023-04-28T06:25:48;12.40;80.70
68480;DHT22;55469;48.934;12.050;2023-04-28T06:28:14;12.40;80.70
68480;DHT22;55469;48.934;12.050;2023-04-28T06:30:40;12.30;80.70
68480;DHT22;55469;48.934;12.050;2023-04-28T06:33:06;12.30;80.60
68480;DHT22;55469;48.934;12.050;2023-04-28T06:35:32;12.30;80.70
68480;DHT22;55469;48.934;12.050;2023-04-28T06:38:01;12.40;80.80
68480;DHT22;55469;48.934;12.050;2023-04-28T06:40:28;12.30;80.70
68480;DHT22;55469;48.934;12.050;2023-04-28T06:42:53;12.30;80.60
68480;DHT22;55469;48.934;12.050;2023-04-28T06:45:19;12.30;80.70
68480;DHT22;55469;48.934;12.050;2023-04-28T06:47:45;12.30;80.60
68480;DHT22;55469;48.934;12.050;2023-04-28T06:50:11;12.30;80.80
68480;DHT22;55469;48.934;12.050;2023-04-28T06:52:36;12.30;80.70
68480;DHT22;55469;48.934;12.050;2023-04-28T06:55:06;12.30;80.60
68480;DHT22;55469;48.934;12.050;2023-04-28T06:57:34;12.30;80.70
68480;DHT22;55469;48.934;12.050;2023-04-28T07:00:00;12.30;80.70
68480;DHT22;55469;48.934;12.050;2023-04-28T07:02:26;12.30;80.70
68480;DHT22;55469;48.934;12.050;2023-04-28T07:04:51;12.30;80.70
68480;DHT22;55469;48.934;12.050;2023-04-28T07:07:17;12.30;80.80
68480;DHT22;55469;48.934;12.050;2023-04-28T07:09:43;12.30;80.70
68480;DHT22;55469;48.934;12.050;2023-04-28T07:12:09;12.30;80.80
68480;DHT22;55469;48.934;12.050;2023-04-28T07:14:34;12.30;80.70
68480;DHT22;55469;48.934;12.050;2023-04-28T07:17:00;12.30;80.80
68480;DHT22;55469;48.934;12.050;2023-04-28T07:19:26;12.30;80.80
68480;DHT22;55469;48.934;12.050;2023-04-28T07:21:51;12.30;80.90
68480;DHT22;55469;48.934;12.050;2023-04-28T07:24:17;12.30;80.80
68480;DHT22;55469;48.934;12.050;2023-04-28T07:26:43;12.30;80.80
68480;DHT22;55469;48.934;12.050;2023-04-28T07:29:09;12.30;80.80
68480;DHT22;55469;48.934;12.050;2023-04-28T07:31:37;12.30;80.90
68480;DHT22;55469;48.934;12.050;2023-04-28T07:34:03;12.30;80.80
68480;DHT22;55469;48.934;12.050;2023-04-28T07:36:29;12.30;80.90
68480;DHT22;55469;48.934;12.050;2023-04-28T07:38:56;12.30;80.90
68480;DHT22;55469;48.934;12.050;2023-04-28T07:41:21;12.30;80.80
68480;DHT22;55469;48.934;12.050;2023-04-28T07:43:48;12.30;80.90
68480;DHT22;55469;48.934;12.050;2023-04-28T07:46:14;12.30;80.90
68480;DHT22;55469;48.934;12.050;2023-04-28T07:48:39;12.30;80.90
68480;DHT22;55469;48.934;12.050;2023-04-28T07:51:05;12.30;80.90
68480;DHT22;55469;48.934;12.050;2023-04-28T07:53:31;12.30;80.80
68480;DHT22;55469;48.934;12.050;2023-04-28T07:55:57;12.30;80.80
68480;DHT22;55469;48.934;12.050;2023-04-28T07:58:22;12.30;80.70
68480;DHT22;55469;48.934;12.050;2023-04-28T08:00:48;12.30;80.80
68480;DHT22;55469;48.934;12.050;2023-04-28T08:03:14;12.30;80.80
68480;DHT22;55469;48.934;12.050;2023-04-28T08:05:40;12.30;80.90
68480;DHT22;55469;48.934;12.050;2023-04-28T08:08:05;12.30;80.80
68480;DHT22;55469;48.934;12.050;2023-04-28T08:10:31;12.30;80.90
68480;DHT22;55469;48.934;12.050;2023-04-28T08:12:57;12.30;80.90
68480;DHT22;55469;48.934;12.050;2023-04-28T08:15:23;12.30;80.90
68480;DHT22;55469;48.934;12.050;2023-04-28T08:17:50;12.30;80.90
68480;DHT22;55469;48.934;12.050;2023-04-28T08:20:16;12.30;80.90
68480;DHT22;55469;48.934;12.050;2023-04-28T08:22:44;12.30;81.10
68480;DHT22;55469;48.934;12.050;2023-04-28T08:25:10;12.30;81.00
68480;DHT22;55469;48.934;12.050;2023-04-28T08:27:36;12.30;80.90
68480;DHT22;55469;48.934;12.050;2023-04-28T08:30:07;12.30;80.90
68480;DHT22;55469;48.934;12.050;2023-04-28T08:32:33;12.30;80.90
68480;DHT22;55469;48.934;12.050;2023-04-28T08:34:59;12.40;80.90
68480;DHT22;55469;48.934;12.050;2023-04-28T08:37:28;12.40;80.90
68480;DHT22;55469;48.934;12.050;2023-04-28T08:39:54;12.40;80.70
68480;DHT22;55469;48.934;12.050;2023-04-28T08:42:30;12.40;80.80
68480;DHT22;55469;48.934;12.050;2023-04-28T08:44:57;12.40;80.70
68480;DHT22;55469;48.934;12.050;2023-04-28T08:47:36;12.40;80.70
68480;DHT22;55469;48.934;12.050;2023-04-28T08:50:05;12.40;80.80
68480;DHT22;55469;48.934;12.050;2023-04-28T08:52:33;12.40;80.70
68480;DHT22;55469;48.934;12.050;2023-04-28T08:55:01;12.40;80.90
68480;DHT22;55469;48.934;12.050;2023-04-28T08:57:49;12.40;82.00
68480;DHT22;55469;48.934;12.050;2023-04-28T09:00:19;12.40;80.80
68480;DHT22;55469;48.934;12.050;2023-04-28T09:02:44;12.40;80.80
68480;DHT22;55469;48.934;12.050;2023-04-28T09:05:11;12.40;80.80
68480;DHT22;55469;48.934;12.050;2023-04-28T09:07:39;12.40;80.80
68480;DHT22;55469;48.934;12.050;2023-04-28T09:10:16;12.40;80.90
68480;DHT22;55469;48.934;12.050;2023-04-28T09:12:53;12.40;80.80
68480;DHT22;55469;48.934;12.050;2023-04-28T09:15:28;12.40;80.90
68480;DHT22;55469;48.934;12.050;2023-04-28T09:17:54;12.40;81.00
68480;DHT22;55469;48.934;12.050;2023-04-28T09:20:21;12.40;81.10
68480;DHT22;55469;48.934;12.050;2023-04-28T09:22:48;12.30;81.20
68480;DHT22;55469;48.934;12.050;2023-04-28T09:25:14;12.40;81.20
68480;DHT22;55469;48.934;12.050;2023-04-28T09:27:41;12.40;81.20
68480;DHT22;55469;48.934;12.050;2023-04-28T09:30:07;12.30;81.20
68480;DHT22;55469;48.934;12.050;2023-04-28T09:32:34;12.40;81.30
68480;DHT22;55469;48.934;12.050;2023-04-28T09:35:01;12.40;81.30
68480;DHT22;55469;48.934;12.050;2023-04-28T09:37:29;12.40;81.20
68480;DHT22;55469;48.934;12.050;2023-04-28T09:39:57;12.40;81.10
68480;DHT22;55469;48.934;12.050;2023-04-28T09:42:42;12.40;81.00
68480;DHT22;55469;48.934;12.050;2023-04-28T09:45:11;12.40;81.10
68480;DHT22;55469;48.934;12.050;2023-04-28T09:47:43;12.40;81.20
68480;DHT22;55469;48.934;12.050;2023-04-28T09:50:12;12.40;81.20
68480;DHT22;55469;48.934;12.050;2023-04-28T09:52:55;12.40;81.20
68480;DHT22;55469;48.934;12.050;2023-04-28T09:55:21;12.50;81.10
68480;DHT22;55469;48.934;12.050;2023-04-28T09:57:49;12.40;81.20
68480;DHT22;55469;48.934;12.050;2023-04-28T10:00:19;12.40;81.30
68480;DHT22;55469;48.934;12.050;2023-04-28T10:02:45;12.40;81.20
68480;DHT22;55469;48.934;12.050;2023-04-28T10:05:11;12.40;81.20
68480;DHT22;55469;48.934;12.050;2023-04-28T10:07:40;12.40;81.30
68480;DHT22;55469;48.934;12.050;2023-04-28T10:10:07;12.40;81.20
68480;DHT22;55469;48.934;12.050;2023-04-28T10:12:33;12.40;81.30
68480;DHT22;55469;48.934;12.050;2023-04-28T10:15:02;12.40;81.40
68480;DHT22;55469;48.934;12.050;2023-04-28T10:17:29;12.40;81.40
68480;DHT22;55469;48.934;12.050;2023-04-28T10:19:55;12.40;82.50
68480;DHT22;55469;48.934;12.050;2023-04-28T10:25:24;12.40;81.60
68480;DHT22;55469;48.934;12.050;2023-04-28T10:27:51;12.30;81.70
68480;DHT22;55469;48.934;12.050;2023-04-28T10:30:19;12.40;82.00
68480;DHT22;55469;48.934;12.050;2023-04-28T10:32:47;12.30;82.00
68480;DHT22;55469;48.934;12.050;2023-04-28T10:40:46;12.30;81.80
68480;DHT22;55469;48.934;12.050;2023-04-28T10:48:17;12.30;83.10
68480;DHT22;55469;48.934;12.050;2023-04-28T10:56:18;12.30;82.20
68480;DHT22;55469;48.934;12.050;2023-04-28T10:58:50;12.30;82.10
68480;DHT22;55469;48.934;12.050;2023-04-28T11:04:08;12.30;82.30
68480;DHT22;55469;48.934;12.050;2023-04-28T11:06:43;12.30;82.30
68480;DHT22;55469;48.934;12.050;2023-04-28T11:14:31;12.30;81.90
68480;DHT22;55469;48.934;12.050;2023-04-28T11:16:59;12.30;82.10
68480;DHT22;55469;48.934;12.050;2023-04-28T11:19:45;12.30;82.20
68480;DHT22;55469;48.934;12.050;2023-04-28T11:22:17;12.30;81.90
68480;DHT22;55469;48.934;12.050;2023-04-28T11:24:57;12.30;82.30
68480;DHT22;55469;48.934;12.050;2023-04-28T11:27:25;12.30;82.00
68480;DHT22;55469;48.934;12.050;2023-04-28T11:29:52;12.40;82.20
68480;DHT22;55469;48.934;12.050;2023-04-28T11:32:32;12.40;82.10
68480;DHT22;55469;48.934;12.050;2023-04-28T11:34:58;12.40;81.90
68480;DHT22;55469;48.934;12.050;2023-04-28T11:37:24;12.40;82.00
68480;DHT22;55469;48.934;12.050;2023-04-28T11:39:51;12.40;82.10
68480;DHT22;55469;48.934;12.050;2023-04-28T11:42:17;12.40;82.00
68480;DHT22;55469;48.934;12.050;2023-04-28T11:44:50;12.40;82.00
68480;DHT22;55469;48.934;12.050;2023-04-28T11:47:28;12.40;82.10
68480;DHT22;55469;48.934;12.050;2023-04-28T11:49:54;12.30;82.10
68480;DHT22;55469;48.934;12.050;2023-04-28T11:52:20;12.40;82.20
68480;DHT22;55469;48.934;12.050;2023-04-28T11:54:54;12.30;82.40
68480;DHT22;55469;48.934;12.050;2023-04-28T11:57:21;12.30;82.30
68480;DHT22;55469;48.934;12.050;2023-04-28T11:59:48;12.30;82.50
68480;DHT22;55469;48.934;12.050;2023-04-28T12:02:14;12.30;82.50
68480;DHT22;55469;48.934;12.050;2023-04-28T12:04:42;12.30;82.60
68480;DHT22;55469;48.934;12.050;2023-04-28T12:07:15;12.30;82.60
68480;DHT22;55469;48.934;12.050;2023-04-28T12:09:43;12.30;82.60
68480;DHT22;55469;48.934;12.050;2023-04-28T12:12:15;12.30;82.50
68480;DHT22;55469;48.934;12.050;2023-04-28T12:17:25;12.40;82.50
68480;DHT22;55469;48.934;12.050;2023-04-28T12:19:58;12.40;82.60
68480;DHT22;55469;48.934;12.050;2023-04-28T12:25:09;12.40;82.50
68480;DHT22;55469;48.934;12.050;2023-04-28T12:27:38;12.40;82.60
68480;DHT22;55469;48.934;12.050;2023-04-28T12:32:50;12.30;82.90
68480;DHT22;55469;48.934;12.050;2023-04-28T12:35:16;12.30;82.90
68480;DHT22;55469;48.934;12.050;2023-04-28T12:37:42;12.30;82.80
68480;DHT22;55469;48.934;12.050;2023-04-28T12:40:09;12.30;82.60
68480;DHT22;55469;48.934;12.050;2023-04-28T12:42:35;12.30;82.60
68480;DHT22;55469;48.934;12.050;2023-04-28T12:45:01;12.40;82.60
68480;DHT22;55469;48.934;12.050;2023-04-28T12:47:27;12.40;82.70
68480;DHT22;55469;48.934;12.050;2023-04-28T12:49:53;12.40;82.40
68480;DHT22;55469;48.934;12.050;2023-04-28T12:52:19;12.40;82.40
68480;DHT22;55469;48.934;12.050;2023-04-28T12:54:46;12.40;83.70
68480;DHT22;55469;48.934;12.050;2023-04-28T12:57:16;12.40;85.70
68480;DHT22;55469;48.934;12.050;2023-04-28T12:59:44;12.40;86.90
68480;DHT22;55469;48.934;12.050;2023-04-28T13:02:11;12.40;86.60
68480;DHT22;55469;48.934;12.050;2023-04-28T13:04:38;12.40;85.80
68480;DHT22;55469;48.934;12.050;2023-04-28T13:07:03;12.40;85.90
68480;DHT22;55469;48.934;12.050;2023-04-28T13:09:31;12.40;85.20
68480;DHT22;55469;48.934;12.050;2023-04-28T13:11:57;12.40;84.90
68480;DHT22;55469;48.934;12.050;2023-04-28T13:14:25;12.40;84.50
68480;DHT22;55469;48.934;12.050;2023-04-28T13:16:52;12.50;84.10
68480;DHT22;55469;48.934;12.050;2023-04-28T13:19:18;12.50;83.80
68480;DHT22;55469;48.934;12.050;2023-04-28T13:21:43;12.50;83.80
68480;DHT22;55469;48.934;12.050;2023-04-28T13:24:11;12.50;83.90
68480;DHT22;55469;48.934;12.050;2023-04-28T13:26:39;12.60;83.60
68480;DHT22;55469;48.934;12.050;2023-04-28T13:29:05;12.60;83.20
68480;DHT22;55469;48.934;12.050;2023-04-28T13:31:32;12.60;83.00
68480;DHT22;55469;48.934;12.050;2023-04-28T13:33:58;12.60;83.10
68480;DHT22;55469;48.934;12.050;2023-04-28T13:36:27;12.60;83.20
68480;DHT22;55469;48.934;12.050;2023-04-28T13:38:55;12.50;83.30
68480;DHT22;55469;48.934;12.050;2023-04-28T13:41:21;12.60;83.20
68480;DHT22;55469;48.934;12.050;2023-04-28T13:43:47;12.50;83.20
68480;DHT22;55469;48.934;12.050;2023-04-28T13:46:13;12.50;83.20
68480;DHT22;55469;48.934;12.050;2023-04-28T13:48:39;12.50;83.20
68480;DHT22;55469;48.934;12.050;2023-04-28T13:51:06;12.50;83.20
68480;DHT22;55469;48.934;12.050;2023-04-28T13:53:33;12.50;83.30
68480;DHT22;55469;48.934;12.050;2023-04-28T13:56:00;12.60;83.20
68480;DHT22;55469;48.934;12.050;2023-04-28T13:58:28;12.60;83.20
68480;DHT22;55469;48.934;12.050;2023-04-28T14:00:54;12.50;84.20
68480;DHT22;55469;48.934;12.050;2023-04-28T14:03:22;12.60;83.10
68480;DHT22;55469;48.934;12.050;2023-04-28T14:05:50;12.60;83.10
68480;DHT22;55469;48.934;12.050;2023-04-28T14:08:18;12.60;83.00
68480;DHT22;55469;48.934;12.050;2023-04-28T14:10:43;12.60;82.90
68480;DHT22;55469;48.934;12.050;2023-04-28T14:13:09;12.60;83.00
68480;DHT22;55469;48.934;12.050;2023-04-28T14:15:35;12.60;82.90
68480;DHT22;55469;48.934;12.050;2023-04-28T14:18:01;12.60;82.90
68480;DHT22;55469;48.934;12.050;2023-04-28T14:20:27;12.60;83.00
68480;DHT22;55469;48.934;12.050;2023-04-28T14:22:53;12.60;82.90
68480;DHT22;55469;48.934;12.050;2023-04-28T14:25:19;12.60;83.00
68480;DHT22;55469;48.934;12.050;2023-04-28T14:27:47;12.60;83.00
68480;DHT22;55469;48.934;12.050;2023-04-28T14:30:13;12.60;83.10
68480;DHT22;55469;48.934;12.050;2023-04-28T14:32:39;12.60;83.00
68480;DHT22;55469;48.934;12.050;2023-04-28T14:35:06;12.60;83.00
68480;DHT22;55469;48.934;12.050;2023-04-28T14:37:32;12.50;82.90
68480;DHT22;55469;48.934;12.050;2023-04-28T14:39:58;12.60;83.10
68480;DHT22;55469;48.934;12.050;2023-04-28T14:42:29;12.60;83.20
68480;DHT22;55469;48.934;12.050;2023-04-28T14:44:57;12.60;83.20
68480;DHT22;55469;48.934;12.050;2023-04-28T14:47:23;12.60;83.00
68480;DHT22;55469;48.934;12.050;2023-04-28T14:49:51;12.60;83.10
68480;DHT22;55469;48.934;12.050;2023-04-28T14:52:20;12.60;83.10
68480;DHT22;55469;48.934;12.050;2023-04-28T14:54:50;12.60;83.20
68480;DHT22;55469;48.934;12.050;2023-04-28T14:57:16;12.60;83.10
68480;DHT22;55469;48.934;12.050;2023-04-28T14:59:43;12.60;83.10
68480;DHT22;55469;48.934;12.050;2023-04-28T15:02:09;12.60;83.20
68480;DHT22;55469;48.934;12.050;2023-04-28T15:04:34;12.60;83.30
68480;DHT22;55469;48.934;12.050;2023-04-28T15:07:00;12.60;83.20
68480;DHT22;55469;48.934;12.050;2023-04-28T15:09:27;12.50;83.30
68480;DHT22;55469;48.934;12.050;2023-04-28T15:11:53;12.60;83.30
68480;DHT22;55469;48.934;12.050;2023-04-28T15:14:19;12.60;83.60
68480;DHT22;55469;48.934;12.050;2023-04-28T15:16:45;12.60;83.50
68480;DHT22;55469;48.934;12.050;2023-04-28T15:19:13;12.60;83.40
68480;DHT22;55469;48.934;12.050;2023-04-28T15:21:39;12.60;83.30
68480;DHT22;55469;48.934;12.050;2023-04-28T15:24:06;12.50;83.30
68480;DHT22;55469;48.934;12.050;2023-04-28T15:26:32;12.50;83.30
68480;DHT22;55469;48.934;12.050;2023-04-28T15:28:58;12.60;83.30
68480;DHT22;55469;48.934;12.050;2023-04-28T15:31:25;12.50;83.30
68480;DHT22;55469;48.934;12.050;2023-04-28T15:33:52;12.50;83.40
68480;DHT22;55469;48.934;12.050;2023-04-28T15:36:19;12.60;83.50
68480;DHT22;55469;48.934;12.050;2023-04-28T15:38:46;12.60;83.40
68480;DHT22;55469;48.934;12.050;2023-04-28T15:41:12;12.60;83.50
68480;DHT22;55469;48.934;12.050;2023-04-28T15:43:39;12.60;83.70
68480;DHT22;55469;48.934;12.050;2023-04-28T15:46:06;12.60;83.80
68480;DHT22;55469;48.934;12.050;2023-04-28T15:48:36;12.60;83.80